Time;durP1;ratioP1;P1;durP2;ratioP2;P2;SDS_P1;SDS_P2;PMS_P1;PMS_P2;Temp;Humidity;BMP_temperature;BMP_pressure;BME280_temperature;BME280_humidity;BME280_pressure;Samples;Min_cycle;Max_cycle;Signal;HPM_P1;HPM_P2
2022/09/26 00:01:33;;;;;;;7.90;4.30;;;12.20;99.90;;;;;;5082329;28;20223;-75
2022/09/26 00:04:03;;;;;;;5.30;3.87;;;12.20;99.90;;;;;;5075329;28;20571;-74
2022/09/26 00:06:29;;;;;;;7.40;4.00;;;12.20;99.90;;;;;;5061351;28;20299;-74
2022/09/26 00:08:57;;;;;;;6.17;4.40;;;12.20;99.90;;;;;;5073866;28;20273;-74
2022/09/26 00:11:27;;;;;;;7.57;4.33;;;12.20;99.90;;;;;;5080040;28;20246;-73
2022/09/26 00:13:56;;;;;;;6.00;4.17;;;12.20;99.90;;;;;;5076764;28;20250;-74
2022/09/26 00:16:24;;;;;;;6.67;4.40;;;12.20;99.90;;;;;;5077349;28;20628;-74
2022/09/26 00:18:53;;;;;;;6.87;4.67;;;12.20;99.90;;;;;;5075413;28;20216;-75
2022/09/26 00:21:20;;;;;;;8.73;4.70;;;12.20;99.90;;;;;;5076056;28;20247;-75
2022/09/26 00:23:48;;;;;;;6.30;4.60;;;12.20;99.90;;;;;;5074709;28;20272;-75
2022/09/26 00:26:16;;;;;;;9.33;5.17;;;12.30;99.90;;;;;;5077828;28;20272;-75
2022/09/26 00:28:44;;;;;;;7.17;4.57;;;12.30;99.90;;;;;;5065382;28;20204;-74
2022/09/26 00:31:17;;;;;;;5.80;4.77;;;12.30;99.90;;;;;;5079215;28;20233;-74
2022/09/26 00:33:45;;;;;;;6.47;4.73;;;12.40;99.90;;;;;;5076287;28;20240;-74
2022/09/26 00:36:12;;;;;;;6.80;4.97;;;12.40;99.90;;;;;;5086493;28;20204;-74
2022/09/26 00:38:40;;;;;;;7.47;4.80;;;12.40;99.90;;;;;;5081680;28;20247;-74
2022/09/26 00:41:08;;;;;;;10.00;4.97;;;12.40;99.90;;;;;;5082729;28;20245;-76
2022/09/26 00:43:36;;;;;;;8.27;5.17;;;12.40;99.90;;;;;;5074410;28;20322;-75
2022/09/26 00:46:32;;;;;;;6.70;5.40;;;12.40;99.90;;;;;;5074173;28;20619;-73
2022/09/26 00:49:23;;;;;;;9.93;5.00;;;12.40;99.90;;;;;;5077223;28;20873;-75
2022/09/26 00:51:54;;;;;;;7.93;4.87;;;12.40;99.90;;;;;;5077627;28;20224;-75
2022/09/26 00:54:22;;;;;;;11.03;5.27;;;12.40;99.90;;;;;;5076476;28;20282;-76
2022/09/26 00:56:52;;;;;;;11.40;4.77;;;12.40;99.90;;;;;;5075241;28;20220;-74
2022/09/26 00:59:28;;;;;;;9.57;5.53;;;12.50;99.90;;;;;;5073279;28;20245;-75
2022/09/26 01:01:57;;;;;;;8.07;4.87;;;12.40;99.90;;;;;;5078380;28;20242;-74
2022/09/26 01:04:27;;;;;;;9.23;5.00;;;12.40;99.90;;;;;;5080220;28;20217;-74
2022/09/26 01:06:56;;;;;;;8.30;4.50;;;12.40;99.90;;;;;;5073869;28;20204;-73
2022/09/26 01:09:24;;;;;;;6.80;4.50;;;12.40;99.90;;;;;;5075497;28;20534;-75
2022/09/26 01:11:52;;;;;;;11.03;4.83;;;12.30;99.90;;;;;;5076640;28;20214;-74
2022/09/26 01:14:20;;;;;;;11.27;5.27;;;12.30;99.90;;;;;;5079646;28;20200;-73
2022/09/26 01:16:52;;;;;;;9.57;5.17;;;12.30;99.90;;;;;;5081180;28;20735;-75
2022/09/26 01:19:41;;;;;;;9.10;5.97;;;12.40;99.90;;;;;;5084178;28;20305;-74
2022/09/26 01:22:28;;;;;;;7.57;4.80;;;12.30;99.90;;;;;;5079343;28;20208;-75
2022/09/26 01:25:15;;;;;;;9.23;5.17;;;12.30;99.90;;;;;;5081243;28;20294;-74
2022/09/26 01:28:20;;;;;;;9.60;5.37;;;12.30;99.90;;;;;;5078902;28;20204;-75
2022/09/26 01:31:10;;;;;;;8.40;5.70;;;12.20;99.90;;;;;;5084223;28;20303;-76
2022/09/26 01:34:05;;;;;;;9.93;6.17;;;12.20;99.90;;;;;;5067194;28;20306;-75
2022/09/26 01:37:18;;;;;;;11.63;6.83;;;12.20;99.90;;;;;;5081216;28;20573;-75
2022/09/26 01:40:23;;;;;;;10.73;5.90;;;12.20;99.90;;;;;;5077773;28;20238;-75
2022/09/26 01:43:08;;;;;;;6.73;5.67;;;12.20;99.90;;;;;;5075688;28;20304;-74
2022/09/26 01:45:48;;;;;;;9.27;5.53;;;12.30;99.90;;;;;;5063050;28;20292;-74
2022/09/26 01:48:20;;;;;;;9.80;5.43;;;12.30;99.90;;;;;;5079538;28;20200;-74
2022/09/26 01:50:56;;;;;;;7.43;5.07;;;12.30;99.90;;;;;;5082850;28;20205;-76
2022/09/26 01:53:29;;;;;;;10.43;4.83;;;12.40;99.90;;;;;;5079433;28;20307;-74
2022/09/26 01:56:15;;;;;;;6.57;4.30;;;12.30;99.90;;;;;;5078536;28;20250;-73
2022/09/26 01:58:54;;;;;;;4.80;3.80;;;12.30;99.90;;;;;;5064593;28;20212;-75
2022/09/26 02:01:25;;;;;;;7.30;3.80;;;12.30;99.90;;;;;;5080696;28;20220;-75
2022/09/26 02:03:55;;;;;;;7.53;3.40;;;12.30;99.90;;;;;;5078758;28;20275;-75
2022/09/26 02:06:42;;;;;;;5.03;3.70;;;12.30;99.90;;;;;;5082022;28;20304;-76
2022/09/26 02:09:15;;;;;;;4.50;3.47;;;12.20;99.90;;;;;;5077719;28;20773;-74
2022/09/26 02:11:46;;;;;;;11.37;4.10;;;12.20;99.90;;;;;;5066627;28;20242;-75
2022/09/26 02:14:34;;;;;;;6.97;4.13;;;12.20;99.90;;;;;;5077026;28;20232;-74
2022/09/26 02:17:16;;;;;;;9.67;4.13;;;12.30;99.90;;;;;;5079267;28;20310;-74
2022/09/26 02:19:57;;;;;;;8.10;4.57;;;12.30;99.90;;;;;;5084940;28;20649;-75
2022/09/26 02:22:30;;;;;;;5.80;4.53;;;12.30;99.90;;;;;;5061619;28;20200;-74
2022/09/26 02:24:57;;;;;;;8.20;5.37;;;12.30;99.90;;;;;;5083331;28;20196;-74
2022/09/26 02:27:25;;;;;;;9.53;5.87;;;12.30;99.90;;;;;;5082538;28;20211;-73
2022/09/26 02:29:53;;;;;;;8.20;5.20;;;12.20;99.90;;;;;;5064923;28;20626;-74
2022/09/26 02:32:26;;;;;;;11.23;5.37;;;12.30;99.90;;;;;;5084583;28;20215;-75
2022/09/26 02:34:57;;;;;;;10.30;5.80;;;12.20;99.90;;;;;;5064226;28;20219;-75
2022/09/26 02:37:27;;;;;;;10.50;6.10;;;12.20;99.90;;;;;;5081350;28;20196;-74
2022/09/26 02:39:55;;;;;;;10.50;6.07;;;12.20;99.90;;;;;;5071329;28;20600;-74
2022/09/26 02:42:35;;;;;;;8.97;5.73;;;12.30;99.90;;;;;;5078431;28;20801;-74
2022/09/26 02:45:19;;;;;;;11.43;6.13;;;12.30;99.90;;;;;;5080417;28;20214;-75
2022/09/26 02:47:53;;;;;;;10.80;7.17;;;12.30;99.90;;;;;;5082835;28;20255;-75
2022/09/26 02:50:39;;;;;;;14.77;7.17;;;12.30;99.90;;;;;;5075391;28;20198;-75
2022/09/26 02:53:11;;;;;;;11.93;7.30;;;12.20;99.90;;;;;;5078626;28;20264;-74
2022/09/26 02:56:08;;;;;;;12.33;7.23;;;12.30;99.90;;;;;;5076984;28;20274;-74
2022/09/26 02:58:41;;;;;;;12.03;7.43;;;12.30;99.90;;;;;;5077876;28;20212;-76
2022/09/26 03:01:38;;;;;;;13.00;7.43;;;12.20;99.90;;;;;;5082131;28;20232;-76
2022/09/26 03:04:31;;;;;;;15.37;8.27;;;12.20;99.90;;;;;;5077845;28;20216;-74
2022/09/26 03:07:05;;;;;;;13.57;8.57;;;12.20;99.90;;;;;;5029935;28;20287;-74
2022/09/26 03:09:33;;;;;;;14.77;8.03;;;12.20;99.90;;;;;;5059201;28;20692;-73
2022/09/26 03:12:03;;;;;;;12.27;8.13;;;12.30;99.90;;;;;;5074078;28;20206;-75
2022/09/26 03:14:33;;;;;;;10.13;8.37;;;12.10;99.90;;;;;;5080299;28;20237;-72
2022/09/26 03:17:02;;;;;;;13.03;7.87;;;12.10;99.90;;;;;;5078035;28;20219;-75
2022/09/26 03:19:42;;;;;;;17.23;9.17;;;12.10;99.90;;;;;;5077794;28;20208;-75
2022/09/26 03:22:09;;;;;;;12.77;7.93;;;12.10;99.90;;;;;;5080392;28;20204;-75
2022/09/26 03:24:37;;;;;;;14.70;9.20;;;12.10;99.90;;;;;;5077983;28;20200;-74
2022/09/26 03:27:05;;;;;;;11.50;8.77;;;12.00;99.90;;;;;;5085715;28;20286;-75
2022/09/26 03:29:32;;;;;;;19.40;9.90;;;12.00;99.90;;;;;;5061843;28;20723;-75
2022/09/26 03:31:59;;;;;;;13.43;9.67;;;12.00;99.90;;;;;;5074650;28;20630;-75
2022/09/26 03:34:27;;;;;;;15.90;9.57;;;12.00;99.90;;;;;;5077274;28;20232;-75
2022/09/26 03:36:55;;;;;;;13.83;9.00;;;12.00;99.90;;;;;;5075333;28;20199;-76
2022/09/26 03:39:22;;;;;;;11.43;8.77;;;12.00;99.90;;;;;;5064823;28;20231;-75
2022/09/26 03:41:49;;;;;;;15.67;9.33;;;11.90;99.90;;;;;;5076382;28;20228;-75
2022/09/26 03:44:16;;;;;;;12.70;9.10;;;11.90;99.90;;;;;;5056279;28;20502;-75
2022/09/26 03:46:43;;;;;;;15.13;9.13;;;11.90;99.90;;;;;;5077386;28;20602;-75
2022/09/26 03:49:10;;;;;;;13.00;9.23;;;11.90;99.90;;;;;;5074332;28;20254;-73
2022/09/26 03:51:38;;;;;;;13.57;9.20;;;11.90;99.90;;;;;;5078863;28;20196;-73
2022/09/26 03:54:05;;;;;;;16.70;8.97;;;11.90;99.90;;;;;;5070238;28;20236;-74
2022/09/26 03:56:31;;;;;;;13.50;8.50;;;11.80;99.90;;;;;;5076040;28;20299;-74
2022/09/26 03:58:58;;;;;;;14.73;8.37;;;11.90;99.90;;;;;;5079020;28;20257;-75
2022/09/26 04:01:25;;;;;;;13.80;8.77;;;11.90;99.90;;;;;;5079836;28;20620;-75
2022/09/26 04:03:52;;;;;;;12.63;8.33;;;11.80;99.90;;;;;;5073091;28;20223;-75
2022/09/26 04:06:20;;;;;;;12.67;8.00;;;11.80;99.90;;;;;;5078423;28;20298;-75
2022/09/26 04:08:49;;;;;;;14.87;8.70;;;11.80;99.90;;;;;;5053616;28;20610;-73
2022/09/26 04:11:19;;;;;;;12.70;7.43;;;11.90;99.90;;;;;;5079290;28;20216;-75
2022/09/26 04:13:47;;;;;;;13.03;8.27;;;11.90;99.90;;;;;;5077326;28;20310;-74
2022/09/26 04:16:22;;;;;;;11.07;7.63;;;11.90;99.90;;;;;;5065856;28;20244;-75
2022/09/26 04:18:55;;;;;;;8.97;7.13;;;11.90;99.90;;;;;;5074837;28;20204;-76
2022/09/26 04:21:23;;;;;;;10.60;6.80;;;11.80;99.90;;;;;;5080813;28;20200;-76
2022/09/26 04:23:52;;;;;;;14.67;7.57;;;11.80;99.90;;;;;;5061506;28;20240;-74
2022/09/26 04:26:19;;;;;;;12.70;7.80;;;11.80;99.90;;;;;;5063879;28;20204;-75
2022/09/26 04:28:53;;;;;;;12.03;7.10;;;11.80;99.90;;;;;;5083451;28;20235;-74
2022/09/26 04:31:21;;;;;;;13.13;7.97;;;11.80;99.90;;;;;;5059173;28;20308;-75
2022/09/26 04:33:49;;;;;;;12.27;7.63;;;11.80;99.90;;;;;;5072376;28;20248;-74
2022/09/26 04:36:16;;;;;;;14.93;8.13;;;11.80;99.90;;;;;;5074714;28;20206;-73
2022/09/26 04:38:43;;;;;;;14.10;7.97;;;11.80;99.90;;;;;;5063866;28;20294;-74
2022/09/26 04:41:18;;;;;;;10.13;7.47;;;11.90;99.90;;;;;;5080791;28;20201;-73
2022/09/26 04:43:45;;;;;;;12.10;6.97;;;11.80;99.90;;;;;;5073639;28;20215;-74
2022/09/26 04:46:20;;;;;;;13.63;7.57;;;11.80;99.90;;;;;;5082495;28;20249;-74
2022/09/26 04:48:53;;;;;;;13.60;7.40;;;11.80;99.90;;;;;;5073238;28;20240;-75
2022/09/26 04:51:21;;;;;;;13.07;7.17;;;11.80;99.90;;;;;;5055635;28;20200;-73
2022/09/26 04:53:49;;;;;;;12.27;7.00;;;11.80;99.90;;;;;;5074087;28;20328;-75
2022/09/26 04:56:18;;;;;;;13.60;7.30;;;11.80;99.90;;;;;;5075265;28;20265;-73
2022/09/26 04:58:48;;;;;;;11.17;6.30;;;11.80;99.90;;;;;;5076661;28;20211;-75
2022/09/26 05:01:17;;;;;;;8.50;6.33;;;11.80;99.90;;;;;;5062200;28;20230;-74
2022/09/26 05:03:44;;;;;;;10.63;6.87;;;11.80;99.90;;;;;;5070353;28;20219;-73
2022/09/26 05:06:12;;;;;;;9.97;6.23;;;11.80;99.90;;;;;;5054992;28;20310;-74
2022/09/26 05:08:43;;;;;;;11.73;6.07;;;11.70;99.90;;;;;;5080104;28;20219;-75
2022/09/26 05:11:10;;;;;;;13.40;6.17;;;11.80;99.90;;;;;;5075737;28;20656;-74
2022/09/26 05:13:37;;;;;;;7.70;5.70;;;11.90;99.90;;;;;;5074211;28;20228;-73
2022/09/26 05:16:07;;;;;;;9.83;6.40;;;11.70;99.90;;;;;;5060480;28;20216;-74
2022/09/26 05:18:35;;;;;;;10.83;5.77;;;11.80;99.90;;;;;;5073296;28;20214;-74
2022/09/26 05:21:04;;;;;;;13.73;5.60;;;11.70;99.90;;;;;;5059244;28;20560;-74
2022/09/26 05:26:23;;;;;;;10.07;5.27;;;11.70;99.90;;;;;;5076970;28;20728;-75
2022/09/26 05:29:00;;;;;;;8.37;4.77;;;11.70;99.90;;;;;;5062667;28;20273;-74
2022/09/26 05:31:35;;;;;;;9.87;5.17;;;11.70;99.90;;;;;;5059303;28;20629;-74
2022/09/26 05:34:04;;;;;;;5.90;4.60;;;11.70;99.90;;;;;;5075458;28;20692;-75
2022/09/26 05:36:31;;;;;;;7.47;4.40;;;11.70;99.90;;;;;;5077770;28;20230;-74
2022/09/26 05:38:58;;;;;;;10.90;5.03;;;11.60;99.90;;;;;;5074629;28;20239;-74
2022/09/26 05:41:30;;;;;;;7.70;4.83;;;11.60;99.90;;;;;;5066203;28;20290;-75
2022/09/26 05:43:57;;;;;;;9.60;5.10;;;11.60;99.90;;;;;;5061675;28;20208;-74
2022/09/26 05:46:26;;;;;;;9.00;4.80;;;11.60;99.90;;;;;;5062772;28;20235;-74
2022/09/26 05:48:54;;;;;;;7.83;4.67;;;11.60;99.90;;;;;;5060794;28;20206;-75
2022/09/26 05:51:22;;;;;;;14.27;5.17;;;11.60;99.90;;;;;;5078502;28;20734;-73
2022/09/26 05:53:49;;;;;;;9.10;4.90;;;11.60;99.90;;;;;;5061523;28;20908;-75
2022/09/26 05:56:18;;;;;;;9.27;4.50;;;11.60;99.90;;;;;;5071489;28;20632;-73
2022/09/26 05:58:46;;;;;;;7.40;4.30;;;11.60;99.90;;;;;;5074613;28;20304;-74
2022/09/26 06:01:15;;;;;;;8.13;4.50;;;11.80;99.90;;;;;;5078105;28;20907;-74
2022/09/26 06:03:44;;;;;;;6.33;4.17;;;11.50;99.90;;;;;;5074597;28;20631;-73
2022/09/26 06:06:16;;;;;;;9.23;4.57;;;11.50;99.90;;;;;;5080792;28;20663;-74
2022/09/26 06:08:44;;;;;;;6.40;4.43;;;11.60;99.90;;;;;;5077153;28;20207;-75
2022/09/26 06:11:13;;;;;;;8.10;4.77;;;11.50;99.90;;;;;;5079838;28;20238;-75
2022/09/26 06:13:45;;;;;;;8.43;4.90;;;11.60;99.90;;;;;;5078058;28;20238;-74
2022/09/26 06:16:17;;;;;;;7.13;3.90;;;11.50;99.90;;;;;;5072927;28;20228;-75
2022/09/26 06:18:45;;;;;;;8.70;4.37;;;11.50;99.90;;;;;;5062824;28;20243;-73
2022/09/26 06:21:14;;;;;;;10.50;4.30;;;11.50;99.90;;;;;;5077450;28;20277;-72
2022/09/26 06:23:41;;;;;;;7.97;4.43;;;11.50;99.90;;;;;;5078980;28;20550;-73
2022/09/26 06:26:13;;;;;;;6.10;3.90;;;11.50;99.90;;;;;;5064797;28;20208;-74
2022/09/26 06:28:40;;;;;;;8.97;4.23;;;11.50;99.90;;;;;;5064285;28;20260;-74
2022/09/26 06:31:12;;;;;;;8.10;4.40;;;11.50;99.90;;;;;;5075527;28;20212;-74
2022/09/26 06:33:40;;;;;;;10.07;4.30;;;11.50;99.90;;;;;;5079458;28;20246;-74
2022/09/26 06:36:08;;;;;;;4.70;3.70;;;11.60;99.90;;;;;;5073131;28;20201;-73
2022/09/26 06:38:36;;;;;;;6.93;3.93;;;11.60;99.90;;;;;;5080029;28;20562;-73
2022/09/26 06:41:06;;;;;;;8.97;4.30;;;11.60;99.90;;;;;;5077492;28;20657;-74
2022/09/26 06:43:33;;;;;;;5.53;4.07;;;11.60;99.90;;;;;;5077124;28;20208;-74
2022/09/26 06:46:00;;;;;;;6.63;4.03;;;11.60;99.90;;;;;;5064302;28;20269;-73
2022/09/26 06:48:27;;;;;;;6.50;3.83;;;11.70;99.90;;;;;;5079160;28;20208;-75
2022/09/26 06:50:59;;;;;;;6.43;4.07;;;11.70;99.90;;;;;;5082357;28;20493;-75
2022/09/26 06:53:27;;;;;;;5.57;3.57;;;11.80;99.90;;;;;;5079821;28;20235;-73
2022/09/26 06:55:54;;;;;;;6.20;3.23;;;11.80;99.90;;;;;;5081666;28;20204;-72
2022/09/26 06:58:21;;;;;;;6.93;3.87;;;12.10;99.90;;;;;;5082568;28;20235;-74
2022/09/26 07:00:48;;;;;;;6.07;3.50;;;11.80;99.90;;;;;;5064594;28;20203;-74
2022/09/26 07:03:15;;;;;;;5.07;3.60;;;11.90;99.90;;;;;;5079211;28;20680;-73
2022/09/26 07:05:45;;;;;;;8.13;4.10;;;11.90;99.90;;;;;;5076556;28;20269;-74
2022/09/26 07:08:12;;;;;;;4.20;3.57;;;11.90;99.90;;;;;;5067527;28;20208;-73
2022/09/26 07:10:39;;;;;;;6.23;3.77;;;12.00;99.90;;;;;;5081792;28;20243;-73
2022/09/26 07:13:08;;;;;;;6.40;3.80;;;11.90;99.90;;;;;;5080242;28;20203;-75
2022/09/26 07:15:36;;;;;;;5.03;4.03;;;12.00;99.90;;;;;;5073003;28;20294;-74
2022/09/26 07:18:05;;;;;;;6.37;3.20;;;12.00;99.90;;;;;;5083197;28;20528;-74
2022/09/26 07:20:35;;;;;;;8.20;4.43;;;11.80;99.90;;;;;;5080982;28;20206;-73
2022/09/26 07:23:08;;;;;;;7.70;3.40;;;11.80;99.90;;;;;;5076332;28;20286;-73
2022/09/26 07:25:38;;;;;;;6.73;3.80;;;12.60;99.90;;;;;;5079744;28;20200;-73
2022/09/26 07:28:07;;;;;;;6.57;3.87;;;12.10;99.90;;;;;;5078385;28;20269;-74
2022/09/26 07:30:35;;;;;;;6.90;3.70;;;12.10;99.90;;;;;;5079338;28;20241;-74
2022/09/26 07:33:04;;;;;;;6.50;3.57;;;12.10;99.90;;;;;;5080860;28;20232;-74
2022/09/26 07:35:32;;;;;;;8.43;3.50;;;12.00;99.90;;;;;;5082304;28;20247;-75
2022/09/26 07:37:59;;;;;;;6.33;3.63;;;12.00;99.90;;;;;;5086206;28;20200;-74
2022/09/26 07:40:27;;;;;;;6.90;3.83;;;12.00;99.90;;;;;;5089509;28;20430;-74
2022/09/26 07:42:59;;;;;;;6.03;3.97;;;12.00;99.90;;;;;;5079594;28;20212;-73
2022/09/26 07:51:18;;;;;;;6.20;3.73;;;12.50;99.90;;;;;;5081750;28;20278;-75
2022/09/26 07:53:45;;;;;;;7.27;3.57;;;12.20;99.90;;;;;;5082866;28;20252;-75
2022/09/26 07:56:12;;;;;;;6.63;3.50;;;12.20;99.90;;;;;;5082151;28;20214;-73
2022/09/26 07:58:41;;;;;;;8.73;3.40;;;12.40;99.90;;;;;;5080804;28;20208;-73
2022/09/26 08:01:11;;;;;;;6.17;3.20;;;12.40;99.90;;;;;;5081805;28;20216;-75
2022/09/26 08:03:43;;;;;;;6.63;3.63;;;12.50;99.90;;;;;;5080592;28;20211;-73
2022/09/26 08:06:11;;;;;;;7.50;3.30;;;12.50;99.90;;;;;;5065519;28;20666;-74
2022/09/26 08:08:40;;;;;;;5.73;3.40;;;12.60;99.90;;;;;;5081394;28;20281;-74
2022/09/26 08:11:15;;;;;;;7.40;3.40;;;12.70;99.90;;;;;;5064045;28;20286;-74
2022/09/26 08:13:42;;;;;;;5.90;3.37;;;12.70;99.90;;;;;;5062635;28;20547;-72
2022/09/26 08:16:11;;;;;;;7.10;3.63;;;12.70;99.90;;;;;;5078229;28;20213;-74
2022/09/26 08:18:38;;;;;;;8.00;3.60;;;12.80;99.90;;;;;;5081016;28;20196;-74
2022/09/26 08:21:05;;;;;;;8.80;3.67;;;12.80;99.90;;;;;;5078889;28;20690;-73
2022/09/26 08:23:33;;;;;;;5.67;3.37;;;12.90;99.90;;;;;;5080804;28;20257;-75
2022/09/26 08:26:05;;;;;;;11.80;3.50;;;12.90;99.90;;;;;;5081058;28;20211;-74
2022/09/26 08:28:34;;;;;;;7.33;3.37;;;13.00;99.90;;;;;;5061503;28;20254;-73
2022/09/26 08:31:02;;;;;;;6.67;3.40;;;12.90;99.90;;;;;;5078086;28;20224;-73
2022/09/26 08:33:34;;;;;;;5.87;3.37;;;13.00;99.90;;;;;;5085790;28;20345;-73
2022/09/26 08:36:09;;;;;;;7.90;3.90;;;13.10;99.90;;;;;;5083215;28;20257;-74
2022/09/26 08:38:39;;;;;;;6.47;3.70;;;13.00;99.90;;;;;;5081072;28;20671;-73
2022/09/26 08:41:46;;;;;;;9.03;3.60;;;13.00;99.90;;;;;;5073057;28;20200;-72
2022/09/26 08:44:35;;;;;;;5.70;3.07;;;13.00;99.90;;;;;;5060837;28;20224;-73
2022/09/26 08:47:10;;;;;;;7.87;3.10;;;13.00;99.90;;;;;;5079147;28;20219;-72
2022/09/26 08:49:41;;;;;;;4.80;3.03;;;12.90;99.90;;;;;;5062961;28;20205;-74
2022/09/26 08:52:27;;;;;;;7.13;3.63;;;13.00;99.90;;;;;;5064465;28;20204;-73
2022/09/26 08:54:56;;;;;;;6.43;3.30;;;13.00;99.90;;;;;;5077330;28;20273;-73
2022/09/26 08:57:56;;;;;;;6.20;3.50;;;13.10;99.90;;;;;;5079798;28;20291;-72
2022/09/26 09:00:24;;;;;;;6.97;3.50;;;13.10;99.90;;;;;;5050974;28;20206;-73
2022/09/26 09:02:59;;;;;;;7.23;2.90;;;13.10;99.90;;;;;;5060063;28;20259;-73
2022/09/26 09:05:39;;;;;;;5.83;3.13;;;13.10;99.90;;;;;;5068084;28;20287;-74
2022/09/26 09:08:21;;;;;;;7.30;3.20;;;13.10;99.90;;;;;;5079901;28;20196;-73
2022/09/26 09:11:18;;;;;;;8.93;3.47;;;13.20;99.90;;;;;;5063304;28;20212;-72
2022/09/26 09:14:07;;;;;;;8.40;3.40;;;13.20;99.90;;;;;;5059732;28;20272;-73
2022/09/26 09:16:58;;;;;;;5.07;3.57;;;13.30;99.90;;;;;;5075926;28;20228;-72
2022/09/26 09:19:50;;;;;;;5.43;3.03;;;13.30;99.90;;;;;;5080626;28;20207;-72
2022/09/26 09:22:32;;;;;;;6.83;2.90;;;13.40;99.90;;;;;;5083163;28;20211;-72
2022/09/26 09:25:10;;;;;;;6.00;3.47;;;13.50;99.90;;;;;;5084561;28;20233;-72
2022/09/26 09:27:50;;;;;;;7.23;3.80;;;13.50;99.90;;;;;;5065487;28;20235;-73
2022/09/26 09:30:30;;;;;;;7.13;3.50;;;13.40;99.90;;;;;;5074720;28;20282;-73
2022/09/26 09:33:07;;;;;;;11.13;3.77;;;13.50;99.90;;;;;;5074484;28;20231;-73
2022/09/26 09:35:40;;;;;;;8.23;3.60;;;13.50;99.90;;;;;;5079780;28;20340;-72
2022/09/26 09:38:13;;;;;;;5.57;3.63;;;13.50;99.90;;;;;;5076460;28;20878;-71
2022/09/26 09:40:57;;;;;;;8.77;4.20;;;13.40;99.90;;;;;;5073752;28;20247;-73
2022/09/26 09:43:34;;;;;;;8.00;3.83;;;13.40;99.90;;;;;;5079485;28;20280;-71
2022/09/26 09:46:09;;;;;;;8.07;4.30;;;13.40;99.90;;;;;;5076949;28;20220;-71
2022/09/26 09:48:36;;;;;;;7.97;4.53;;;13.30;99.90;;;;;;5080270;28;20269;-73
2022/09/26 09:51:38;;;;;;;5.33;4.00;;;13.40;99.90;;;;;;5067536;28;20251;-71
2022/09/26 09:54:22;;;;;;;10.27;4.73;;;13.40;99.90;;;;;;5045496;28;20785;-72
2022/09/26 09:57:07;;;;;;;7.80;4.57;;;13.30;99.90;;;;;;5074241;28;20208;-71
2022/09/26 09:59:53;;;;;;;7.33;4.33;;;13.30;99.90;;;;;;5075610;28;20200;-73
2022/09/26 10:02:33;;;;;;;7.10;4.60;;;13.40;99.90;;;;;;5062796;28;20227;-71
2022/09/26 10:05:15;;;;;;;8.23;4.53;;;13.40;99.90;;;;;;5077583;28;20196;-73
2022/09/26 10:07:43;;;;;;;8.13;4.87;;;13.50;99.90;;;;;;5081559;28;20204;-72
2022/09/26 10:10:19;;;;;;;8.30;4.67;;;13.50;99.90;;;;;;5079942;28;20279;-72
2022/09/26 10:12:50;;;;;;;8.10;4.80;;;13.50;99.90;;;;;;5081288;28;20249;-73
2022/09/26 10:15:20;;;;;;;7.70;5.07;;;13.50;99.90;;;;;;5078167;28;20306;-72
2022/09/26 10:18:10;;;;;;;6.87;4.97;;;13.60;99.90;;;;;;5081254;28;20212;-72
2022/09/26 10:20:59;;;;;;;7.80;4.30;;;13.60;99.90;;;;;;5077039;28;20255;-71
2022/09/26 10:23:38;;;;;;;12.67;5.07;;;13.60;99.90;;;;;;5077277;28;20581;-72
2022/09/26 10:26:07;;;;;;;5.97;4.20;;;13.60;99.90;;;;;;5084452;28;20203;-73
2022/09/26 10:28:47;;;;;;;6.67;3.93;;;13.80;99.90;;;;;;5082712;28;20727;-73
2022/09/26 10:31:34;;;;;;;10.50;4.40;;;13.80;99.90;;;;;;5076139;28;20615;-72
2022/09/26 10:34:30;;;;;;;8.50;4.67;;;13.90;99.90;;;;;;5078388;28;20239;-71
2022/09/26 10:37:27;;;;;;;7.33;3.90;;;13.80;99.90;;;;;;5083789;28;20207;-73
2022/09/26 10:42:45;;;;;;;9.43;4.37;;;13.60;99.90;;;;;;5075066;28;20407;-71
2022/09/26 10:45:16;;;;;;;7.40;3.97;;;13.50;99.90;;;;;;5076947;28;20212;-71
2022/09/26 10:47:45;;;;;;;6.87;4.20;;;13.50;99.90;;;;;;5079073;28;20734;-72
2022/09/26 10:50:26;;;;;;;7.70;4.43;;;13.40;99.90;;;;;;5080862;28;20205;-72
2022/09/26 10:53:07;;;;;;;7.93;4.00;;;13.40;99.90;;;;;;5081173;28;20257;-71
2022/09/26 10:55:42;;;;;;;7.03;4.10;;;13.30;99.90;;;;;;5049863;28;20216;-72
2022/09/26 10:58:17;;;;;;;7.63;3.80;;;13.30;99.90;;;;;;5080481;28;20240;-71
2022/09/26 11:00:49;;;;;;;5.97;4.13;;;13.20;99.90;;;;;;5083484;28;20286;-72
2022/09/26 11:03:43;;;;;;;7.53;4.47;;;13.20;99.90;;;;;;5077588;28;20294;-71
2022/09/26 11:06:33;;;;;;;9.73;4.20;;;13.20;99.90;;;;;;5073455;28;20192;-72
2022/09/26 11:09:02;;;;;;;6.70;4.10;;;13.20;99.90;;;;;;5074996;28;20196;-71
2022/09/26 11:11:36;;;;;;;7.03;3.70;;;13.20;99.90;;;;;;5078245;28;20193;-71
2022/09/26 11:14:06;;;;;;;6.90;4.10;;;13.20;99.90;;;;;;5075089;28;20214;-70
2022/09/26 11:16:38;;;;;;;6.20;4.00;;;13.10;99.90;;;;;;5062459;28;20712;-71
2022/09/26 11:19:18;;;;;;;6.70;4.03;;;13.10;99.90;;;;;;5077310;28;20665;-73
2022/09/26 11:22:10;;;;;;;10.57;4.23;;;13.10;99.90;;;;;;5082553;28;20246;-72
2022/09/26 11:24:46;;;;;;;7.07;3.67;;;13.10;99.90;;;;;;5073857;28;21672;-72
2022/09/26 11:27:22;;;;;;;4.63;3.80;;;13.20;99.90;;;;;;5079980;28;20315;-73
2022/09/26 11:30:00;;;;;;;4.30;3.53;;;13.30;99.90;;;;;;5082414;28;20213;-70
2022/09/26 11:32:39;;;;;;;5.20;3.90;;;13.20;99.90;;;;;;5075168;28;21292;-72
2022/09/26 11:35:28;;;;;;;7.40;3.80;;;13.30;99.90;;;;;;5077406;28;20320;-73
2022/09/26 11:37:56;;;;;;;3.30;3.00;;;13.30;99.90;;;;;;5082461;28;20671;-71
2022/09/26 11:40:26;;;;;;;4.10;3.20;;;13.20;99.90;;;;;;5083238;28;20204;-72
2022/09/26 11:43:02;;;;;;;3.27;2.97;;;13.20;99.90;;;;;;5059493;28;20196;-71
2022/09/26 11:45:48;;;;;;;4.50;3.33;;;13.20;99.90;;;;;;5077213;28;20217;-72
2022/09/26 11:48:45;;;;;;;4.53;3.23;;;13.10;99.90;;;;;;5065301;28;20209;-70
2022/09/26 11:52:03;;;;;;;4.73;3.30;;;13.10;99.90;;;;;;5085087;28;20234;-70
2022/09/26 11:54:53;;;;;;;5.20;3.57;;;13.10;99.90;;;;;;5017559;28;20208;-73
2022/09/26 11:57:33;;;;;;;4.80;3.00;;;13.20;99.90;;;;;;5077734;28;20227;-71
2022/09/26 12:00:05;;;;;;;5.57;3.17;;;13.20;99.90;;;;;;5070431;28;20212;-72
2022/09/26 12:02:57;;;;;;;5.83;3.33;;;13.20;99.90;;;;;;5078531;28;20290;-72
2022/09/26 12:05:47;;;;;;;4.47;3.00;;;13.20;99.90;;;;;;5080444;28;20231;-69
2022/09/26 12:08:34;;;;;;;5.83;3.17;;;13.30;99.90;;;;;;5064141;28;20681;-72
2022/09/26 12:11:18;;;;;;;4.10;2.70;;;13.30;99.90;;;;;;5075999;28;20741;-72
2022/09/26 12:14:02;;;;;;;2.73;2.37;;;13.30;99.90;;;;;;5078368;28;20243;-71
2022/09/26 12:16:57;;;;;;;2.43;2.20;;;13.30;99.90;;;;;;5082008;28;20223;-72
2022/09/26 12:19:40;;;;;;;6.13;2.60;;;13.30;99.90;;;;;;5080758;28;20204;-72
2022/09/26 12:22:27;;;;;;;3.73;2.50;;;13.30;99.90;;;;;;5063383;28;20194;-72
2022/09/26 12:25:35;;;;;;;3.87;2.53;;;13.30;99.90;;;;;;5082078;28;20629;-73
2022/09/26 12:28:02;;;;;;;2.80;2.40;;;13.30;99.90;;;;;;5070548;28;20316;-72
2022/09/26 12:30:32;;;;;;;2.73;2.53;;;13.30;99.90;;;;;;5061490;28;20265;-73
2022/09/26 12:33:30;;;;;;;2.60;2.40;;;13.30;99.90;;;;;;5077231;28;20235;-72
2022/09/26 12:36:07;;;;;;;4.10;2.60;;;13.20;99.90;;;;;;5083182;28;20228;-71
2022/09/26 12:38:53;;;;;;;4.87;2.50;;;13.20;99.90;;;;;;5080479;28;20204;-72
2022/09/26 12:41:36;;;;;;;3.83;2.40;;;13.20;99.90;;;;;;5080492;28;20209;-73
2022/09/26 12:44:21;;;;;;;3.63;2.80;;;13.20;99.90;;;;;;5079939;28;20246;-72
2022/09/26 12:47:38;;;;;;;2.67;2.47;;;13.20;99.90;;;;;;5071884;28;20294;-74
2022/09/26 12:50:24;;;;;;;3.83;2.23;;;13.20;99.90;;;;;;5020120;28;20208;-73
2022/09/26 12:53:04;;;;;;;3.23;2.50;;;13.20;99.90;;;;;;5056634;28;20310;-72
2022/09/26 12:56:05;;;;;;;2.40;2.20;;;13.20;99.90;;;;;;5074511;28;20318;-73
2022/09/26 12:58:42;;;;;;;2.97;2.50;;;13.20;99.90;;;;;;5066056;28;20233;-72
2022/09/26 13:01:12;;;;;;;3.17;2.60;;;13.20;99.90;;;;;;5075015;28;20621;-74
2022/09/26 13:04:03;;;;;;;2.50;2.20;;;13.10;99.90;;;;;;5081267;28;20668;-73
2022/09/26 13:06:45;;;;;;;3.07;2.77;;;13.10;99.90;;;;;;5076281;28;20205;-73
2022/09/26 13:09:55;;;;;;;4.53;2.77;;;13.10;99.90;;;;;;5079401;28;20294;-73
2022/09/26 13:13:01;;;;;;;5.23;3.10;;;13.20;99.90;;;;;;5077233;28;20254;-73
2022/09/26 13:15:38;;;;;;;3.10;2.63;;;13.20;99.90;;;;;;5067254;28;20280;-74
2022/09/26 13:18:17;;;;;;;3.50;3.20;;;13.20;99.90;;;;;;5075819;28;20643;-73
2022/09/26 13:21:16;;;;;;;5.37;3.30;;;13.20;99.90;;;;;;5080498;28;20207;-72
2022/09/26 13:23:52;;;;;;;4.27;3.17;;;13.20;99.90;;;;;;5074718;28;20294;-74
2022/09/26 13:26:34;;;;;;;4.23;3.07;;;13.10;99.90;;;;;;5081921;28;20196;-73
2022/09/26 13:29:09;;;;;;;4.27;3.83;;;13.10;99.90;;;;;;5078738;28;20212;-72
2022/09/26 13:31:54;;;;;;;4.73;4.03;;;13.10;99.90;;;;;;5078887;28;20220;-72
2022/09/26 13:34:39;;;;;;;3.70;3.40;;;13.20;99.90;;;;;;5064692;28;20227;-73
2022/09/26 13:37:27;;;;;;;4.27;3.87;;;13.20;99.90;;;;;;5078993;28;20254;-73